sensor_id;sensor_type;location;lat;lon;timestamp;temperature;humidity
1107;DHT22;540;49.448;8.612;2023-11-22T00:00:47;7.80;99.90
1107;DHT22;540;49.448;8.612;2023-11-22T00:03:15;7.90;99.90
1107;DHT22;540;49.448;8.612;2023-11-22T00:05:44;8.00;99.90
1107;DHT22;540;49.448;8.612;2023-11-22T00:08:13;8.00;99.90
1107;DHT22;540;49.448;8.612;2023-11-22T00:10:41;8.10;99.90
1107;DHT22;540;49.448;8.612;2023-11-22T00:13:09;7.10;99.90
1107;DHT22;540;49.448;8.612;2023-11-22T00:15:39;7.70;99.90
1107;DHT22;540;49.448;8.612;2023-11-22T00:18:07;7.60;99.90
1107;DHT22;540;49.448;8.612;2023-11-22T00:20:36;7.60;99.90
1107;DHT22;540;49.448;8.612;2023-11-22T00:23:04;7.80;99.90
1107;DHT22;540;49.448;8.612;2023-11-22T00:25:33;7.50;99.90
1107;DHT22;540;49.448;8.612;2023-11-22T00:28:01;7.40;99.90
1107;DHT22;540;49.448;8.612;2023-11-22T00:30:30;7.60;99.90
1107;DHT22;540;49.448;8.612;2023-11-22T00:33:00;7.20;99.90
1107;DHT22;540;49.448;8.612;2023-11-22T00:35:28;6.90;99.90
1107;DHT22;540;49.448;8.612;2023-11-22T00:37:57;7.10;99.90
1107;DHT22;540;49.448;8.612;2023-11-22T00:40:25;7.10;99.90
1107;DHT22;540;49.448;8.612;2023-11-22T00:42:53;7.10;99.90
1107;DHT22;540;49.448;8.612;2023-11-22T00:45:21;7.00;99.90
1107;DHT22;540;49.448;8.612;2023-11-22T00:47:49;7.00;99.90
1107;DHT22;540;49.448;8.612;2023-11-22T00:50:22;7.40;99.90
1107;DHT22;540;49.448;8.612;2023-11-22T00:52:53;7.40;99.90
1107;DHT22;540;49.448;8.612;2023-11-22T00:55:23;7.40;99.90
1107;DHT22;540;49.448;8.612;2023-11-22T00:57:51;7.30;99.90
1107;DHT22;540;49.448;8.612;2023-11-22T01:00:18;7.00;99.90
1107;DHT22;540;49.448;8.612;2023-11-22T01:02:46;6.90;99.90
1107;DHT22;540;49.448;8.612;2023-11-22T01:05:14;6.90;99.90
1107;DHT22;540;49.448;8.612;2023-11-22T01:07:45;7.00;99.90
1107;DHT22;540;49.448;8.612;2023-11-22T01:10:13;6.90;99.90
1107;DHT22;540;49.448;8.612;2023-11-22T01:12:41;6.90;99.90
1107;DHT22;540;49.448;8.612;2023-11-22T01:15:11;6.80;99.90
1107;DHT22;540;49.448;8.612;2023-11-22T01:17:38;6.90;99.90
1107;DHT22;540;49.448;8.612;2023-11-22T01:20:08;6.90;99.90
1107;DHT22;540;49.448;8.612;2023-11-22T01:22:38;6.70;99.90
1107;DHT22;540;49.448;8.612;2023-11-22T01:25:08;7.00;99.90
1107;DHT22;540;49.448;8.612;2023-11-22T01:27:36;6.80;99.90
1107;DHT22;540;49.448;8.612;2023-11-22T01:30:06;6.10;99.90
1107;DHT22;540;49.448;8.612;2023-11-22T01:32:35;6.70;99.90
1107;DHT22;540;49.448;8.612;2023-11-22T01:35:04;6.10;99.90
1107;DHT22;540;49.448;8.612;2023-11-22T01:37:32;6.90;99.90
1107;DHT22;540;49.448;8.612;2023-11-22T01:40:00;6.30;99.90
1107;DHT22;540;49.448;8.612;2023-11-22T01:42:31;6.50;99.90
1107;DHT22;540;49.448;8.612;2023-11-22T01:44:59;6.70;99.90
1107;DHT22;540;49.448;8.612;2023-11-22T01:47:29;6.40;99.90
1107;DHT22;540;49.448;8.612;2023-11-22T01:49:57;6.30;99.90
1107;DHT22;540;49.448;8.612;2023-11-22T01:52:27;6.30;99.90
1107;DHT22;540;49.448;8.612;2023-11-22T01:54:55;6.30;99.90
1107;DHT22;540;49.448;8.612;2023-11-22T01:57:26;6.10;99.90
1107;DHT22;540;49.448;8.612;2023-11-22T01:59:56;6.20;99.90
1107;DHT22;540;49.448;8.612;2023-11-22T02:02:25;6.50;99.90
1107;DHT22;540;49.448;8.612;2023-11-22T02:04:55;6.20;99.90
1107;DHT22;540;49.448;8.612;2023-11-22T02:07:23;6.20;99.90
1107;DHT22;540;49.448;8.612;2023-11-22T02:09:51;6.40;99.90
1107;DHT22;540;49.448;8.612;2023-11-22T02:12:19;6.10;99.90
1107;DHT22;540;49.448;8.612;2023-11-22T02:14:48;6.20;99.90
1107;DHT22;540;49.448;8.612;2023-11-22T02:17:19;6.00;99.90
1107;DHT22;540;49.448;8.612;2023-11-22T02:19:49;6.30;99.90
1107;DHT22;540;49.448;8.612;2023-11-22T02:22:17;6.00;99.90
1107;DHT22;540;49.448;8.612;2023-11-22T02:24:46;5.90;99.90
1107;DHT22;540;49.448;8.612;2023-11-22T02:27:14;5.90;99.90
1107;DHT22;540;49.448;8.612;2023-11-22T02:29:45;5.70;99.90
1107;DHT22;540;49.448;8.612;2023-11-22T02:32:13;5.70;99.90
1107;DHT22;540;49.448;8.612;2023-11-22T02:34:42;6.00;99.90
1107;DHT22;540;49.448;8.612;2023-11-22T02:37:10;6.00;99.90
1107;DHT22;540;49.448;8.612;2023-11-22T02:39:49;5.80;99.90
1107;DHT22;540;49.448;8.612;2023-11-22T02:42:22;5.60;99.90
1107;DHT22;540;49.448;8.612;2023-11-22T02:44:49;5.70;99.90
1107;DHT22;540;49.448;8.612;2023-11-22T02:47:18;5.70;99.90
1107;DHT22;540;49.448;8.612;2023-11-22T02:49:45;5.90;99.90
1107;DHT22;540;49.448;8.612;2023-11-22T02:52:14;5.70;99.90
1107;DHT22;540;49.448;8.612;2023-11-22T02:54:46;5.80;99.90
1107;DHT22;540;49.448;8.612;2023-11-22T02:57:15;5.20;99.90
1107;DHT22;540;49.448;8.612;2023-11-22T02:59:43;5.50;99.90
1107;DHT22;540;49.448;8.612;2023-11-22T03:02:11;5.70;99.90
1107;DHT22;540;49.448;8.612;2023-11-22T03:04:39;5.70;99.90
1107;DHT22;540;49.448;8.612;2023-11-22T03:07:06;5.60;99.90
1107;DHT22;540;49.448;8.612;2023-11-22T03:09:34;5.30;99.90
1107;DHT22;540;49.448;8.612;2023-11-22T03:12:05;5.40;99.90
1107;DHT22;540;49.448;8.612;2023-11-22T03:14:33;5.50;99.90
1107;DHT22;540;49.448;8.612;2023-11-22T03:17:00;5.10;99.90
1107;DHT22;540;49.448;8.612;2023-11-22T03:19:30;5.40;99.90
1107;DHT22;540;49.448;8.612;2023-11-22T03:22:02;5.60;99.90
1107;DHT22;540;49.448;8.612;2023-11-22T03:24:30;5.00;99.90
1107;DHT22;540;49.448;8.612;2023-11-22T03:26:59;5.50;99.90
1107;DHT22;540;49.448;8.612;2023-11-22T03:29:28;5.30;99.90
1107;DHT22;540;49.448;8.612;2023-11-22T03:31:56;5.10;99.90
1107;DHT22;540;49.448;8.612;2023-11-22T03:34:24;5.40;99.90
1107;DHT22;540;49.448;8.612;2023-11-22T03:36:54;5.30;99.90
1107;DHT22;540;49.448;8.612;2023-11-22T03:39:23;4.60;99.90
1107;DHT22;540;49.448;8.612;2023-11-22T03:41:51;5.10;99.90
1107;DHT22;540;49.448;8.612;2023-11-22T03:44:19;5.10;99.90
1107;DHT22;540;49.448;8.612;2023-11-22T03:46:49;5.20;99.90
1107;DHT22;540;49.448;8.612;2023-11-22T03:49:17;4.80;99.90
1107;DHT22;540;49.448;8.612;2023-11-22T03:51:44;5.30;99.90
1107;DHT22;540;49.448;8.612;2023-11-22T03:54:12;5.00;99.90
1107;DHT22;540;49.448;8.612;2023-11-22T03:56:40;5.30;99.90
1107;DHT22;540;49.448;8.612;2023-11-22T03:59:08;5.10;99.90
1107;DHT22;540;49.448;8.612;2023-11-22T04:01:36;4.90;99.90
1107;DHT22;540;49.448;8.612;2023-11-22T04:04:05;5.10;99.90
1107;DHT22;540;49.448;8.612;2023-11-22T04:06:34;5.30;99.90
1107;DHT22;540;49.448;8.612;2023-11-22T04:09:02;5.20;99.90
1107;DHT22;540;49.448;8.612;2023-11-22T04:11:30;5.20;99.90
1107;DHT22;540;49.448;8.612;2023-11-22T04:13:58;4.90;99.90
1107;DHT22;540;49.448;8.612;2023-11-22T04:16:26;5.20;99.90
1107;DHT22;540;49.448;8.612;2023-11-22T04:18:55;4.90;99.90
1107;DHT22;540;49.448;8.612;2023-11-22T04:21:28;5.10;99.90
1107;DHT22;540;49.448;8.612;2023-11-22T04:23:57;5.00;99.90
1107;DHT22;540;49.448;8.612;2023-11-22T04:26:25;5.20;99.90
1107;DHT22;540;49.448;8.612;2023-11-22T04:28:53;4.70;99.90
1107;DHT22;540;49.448;8.612;2023-11-22T04:31:23;4.80;99.90
1107;DHT22;540;49.448;8.612;2023-11-22T04:33:51;4.80;99.90
1107;DHT22;540;49.448;8.612;2023-11-22T04:36:19;4.60;99.90
1107;DHT22;540;49.448;8.612;2023-11-22T04:38:50;4.70;99.90
1107;DHT22;540;49.448;8.612;2023-11-22T04:41:18;4.20;99.90
1107;DHT22;540;49.448;8.612;2023-11-22T04:43:46;4.60;99.90
1107;DHT22;540;49.448;8.612;2023-11-22T04:46:14;4.60;99.90
1107;DHT22;540;49.448;8.612;2023-11-22T04:48:42;4.60;99.90
1107;DHT22;540;49.448;8.612;2023-11-22T04:51:11;4.50;99.90
1107;DHT22;540;49.448;8.612;2023-11-22T04:53:39;4.40;99.90
1107;DHT22;540;49.448;8.612;2023-11-22T04:56:11;4.40;99.90
1107;DHT22;540;49.448;8.612;2023-11-22T04:58:39;4.40;99.90
1107;DHT22;540;49.448;8.612;2023-11-22T05:01:07;4.60;99.90
1107;DHT22;540;49.448;8.612;2023-11-22T05:03:37;4.50;99.90
1107;DHT22;540;49.448;8.612;2023-11-22T05:06:05;4.20;99.90
1107;DHT22;540;49.448;8.612;2023-11-22T05:08:33;4.40;99.90
1107;DHT22;540;49.448;8.612;2023-11-22T05:11:02;4.60;99.90
1107;DHT22;540;49.448;8.612;2023-11-22T05:13:31;4.30;99.90
1107;DHT22;540;49.448;8.612;2023-11-22T05:16:00;4.10;99.90
1107;DHT22;540;49.448;8.612;2023-11-22T05:18:28;4.40;99.90
1107;DHT22;540;49.448;8.612;2023-11-22T05:20:56;4.20;99.90
1107;DHT22;540;49.448;8.612;2023-11-22T05:23:24;4.20;99.90
1107;DHT22;540;49.448;8.612;2023-11-22T05:25:51;4.30;99.90
1107;DHT22;540;49.448;8.612;2023-11-22T05:28:21;4.20;99.90
1107;DHT22;540;49.448;8.612;2023-11-22T05:30:50;4.30;99.90
1107;DHT22;540;49.448;8.612;2023-11-22T05:33:18;4.40;99.90
1107;DHT22;540;49.448;8.612;2023-11-22T05:35:53;4.30;99.90
1107;DHT22;540;49.448;8.612;2023-11-22T05:38:21;4.20;99.90
1107;DHT22;540;49.448;8.612;2023-11-22T05:40:49;4.10;99.90
1107;DHT22;540;49.448;8.612;2023-11-22T05:43:17;4.00;99.90
1107;DHT22;540;49.448;8.612;2023-11-22T05:45:55;4.00;99.90
1107;DHT22;540;49.448;8.612;2023-11-22T05:48:23;4.10;99.90
1107;DHT22;540;49.448;8.612;2023-11-22T05:50:53;3.40;99.90
1107;DHT22;540;49.448;8.612;2023-11-22T05:53:21;3.90;99.90
1107;DHT22;540;49.448;8.612;2023-11-22T05:55:49;4.10;99.90
1107;DHT22;540;49.448;8.612;2023-11-22T05:58:17;4.00;99.90
1107;DHT22;540;49.448;8.612;2023-11-22T06:00:45;3.90;99.90
1107;DHT22;540;49.448;8.612;2023-11-22T06:03:14;3.90;99.90
1107;DHT22;540;49.448;8.612;2023-11-22T06:05:42;4.10;99.90
1107;DHT22;540;49.448;8.612;2023-11-22T06:08:10;3.90;99.90
1107;DHT22;540;49.448;8.612;2023-11-22T06:10:38;3.80;99.90
1107;DHT22;540;49.448;8.612;2023-11-22T06:13:08;3.80;99.90
1107;DHT22;540;49.448;8.612;2023-11-22T06:15:37;3.70;99.90
1107;DHT22;540;49.448;8.612;2023-11-22T06:18:06;3.60;99.90
1107;DHT22;540;49.448;8.612;2023-11-22T06:20:35;3.60;99.90
1107;DHT22;540;49.448;8.612;2023-11-22T06:23:03;3.90;99.90
1107;DHT22;540;49.448;8.612;2023-11-22T06:25:31;3.70;99.90
1107;DHT22;540;49.448;8.612;2023-11-22T06:27:59;3.80;99.60
1107;DHT22;540;49.448;8.612;2023-11-22T06:30:28;3.30;99.40
1107;DHT22;540;49.448;8.612;2023-11-22T06:32:57;3.60;99.90
1107;DHT22;540;49.448;8.612;2023-11-22T06:35:25;3.40;99.90
1107;DHT22;540;49.448;8.612;2023-11-22T06:37:54;3.50;99.70
1107;DHT22;540;49.448;8.612;2023-11-22T06:40:22;3.30;98.70
1107;DHT22;540;49.448;8.612;2023-11-22T06:42:50;3.20;98.70
1107;DHT22;540;49.448;8.612;2023-11-22T06:45:18;3.50;98.30
1107;DHT22;540;49.448;8.612;2023-11-22T06:47:46;3.60;98.50
1107;DHT22;540;49.448;8.612;2023-11-22T06:50:14;3.70;99.00
1107;DHT22;540;49.448;8.612;2023-11-22T06:52:42;3.10;99.10
1107;DHT22;540;49.448;8.612;2023-11-22T06:55:13;3.50;99.60
1107;DHT22;540;49.448;8.612;2023-11-22T06:57:40;3.60;98.20
1107;DHT22;540;49.448;8.612;2023-11-22T07:00:09;3.40;98.40
1107;DHT22;540;49.448;8.612;2023-11-22T07:02:39;3.50;97.80
1107;DHT22;540;49.448;8.612;2023-11-22T07:05:07;3.30;96.60
1107;DHT22;540;49.448;8.612;2023-11-22T07:07:36;3.40;96.90
1107;DHT22;540;49.448;8.612;2023-11-22T07:10:05;3.50;97.90
1107;DHT22;540;49.448;8.612;2023-11-22T07:12:34;3.50;96.70
1107;DHT22;540;49.448;8.612;2023-11-22T07:15:07;3.50;96.80
1107;DHT22;540;49.448;8.612;2023-11-22T07:17:36;3.60;97.10
1107;DHT22;540;49.448;8.612;2023-11-22T07:20:06;3.20;96.00
1107;DHT22;540;49.448;8.612;2023-11-22T07:22:39;3.40;96.70
1107;DHT22;540;49.448;8.612;2023-11-22T07:25:09;3.60;96.90
1107;DHT22;540;49.448;8.612;2023-11-22T07:27:46;3.40;97.20
1107;DHT22;540;49.448;8.612;2023-11-22T07:30:14;3.30;97.30
1107;DHT22;540;49.448;8.612;2023-11-22T07:32:42;3.50;97.70
1107;DHT22;540;49.448;8.612;2023-11-22T07:35:11;3.60;98.00
1107;DHT22;540;49.448;8.612;2023-11-22T07:37:39;3.60;97.30
1107;DHT22;540;49.448;8.612;2023-11-22T07:40:09;3.80;96.70
1107;DHT22;540;49.448;8.612;2023-11-22T07:42:40;3.80;96.80
1107;DHT22;540;49.448;8.612;2023-11-22T07:45:10;4.20;96.70
1107;DHT22;540;49.448;8.612;2023-11-22T07:47:38;4.30;96.60
1107;DHT22;540;49.448;8.612;2023-11-22T07:50:09;5.00;94.50
1107;DHT22;540;49.448;8.612;2023-11-22T07:52:38;6.00;90.80
1107;DHT22;540;49.448;8.612;2023-11-22T07:55:07;6.90;87.20
1107;DHT22;540;49.448;8.612;2023-11-22T07:57:37;7.30;80.40
1107;DHT22;540;49.448;8.612;2023-11-22T08:00:06;8.20;76.10
1107;DHT22;540;49.448;8.612;2023-11-22T08:02:36;8.40;72.20
1107;DHT22;540;49.448;8.612;2023-11-22T08:05:05;8.80;70.90
1107;DHT22;540;49.448;8.612;2023-11-22T08:07:36;9.10;67.90
1107;DHT22;540;49.448;8.612;2023-11-22T08:10:06;9.40;65.30
1107;DHT22;540;49.448;8.612;2023-11-22T08:12:36;9.70;65.00
1107;DHT22;540;49.448;8.612;2023-11-22T08:15:05;10.40;61.30
1107;DHT22;540;49.448;8.612;2023-11-22T08:17:37;10.30;59.60
1107;DHT22;540;49.448;8.612;2023-11-22T08:20:06;9.70;60.40
1107;DHT22;540;49.448;8.612;2023-11-22T08:22:40;10.60;60.30
1107;DHT22;540;49.448;8.612;2023-11-22T08:25:09;10.70;58.20
1107;DHT22;540;49.448;8.612;2023-11-22T08:27:40;10.80;57.20
1107;DHT22;540;49.448;8.612;2023-11-22T08:30:09;10.90;57.30
1107;DHT22;540;49.448;8.612;2023-11-22T08:32:42;11.10;56.70
1107;DHT22;540;49.448;8.612;2023-11-22T08:35:11;11.50;55.30
1107;DHT22;540;49.448;8.612;2023-11-22T08:37:40;11.50;54.90
1107;DHT22;540;49.448;8.612;2023-11-22T08:40:10;11.30;54.40
1107;DHT22;540;49.448;8.612;2023-11-22T08:42:40;11.50;54.90
1107;DHT22;540;49.448;8.612;2023-11-22T08:45:09;11.70;55.20
1107;DHT22;540;49.448;8.612;2023-11-22T08:47:39;11.80;54.00
1107;DHT22;540;49.448;8.612;2023-11-22T08:50:09;11.70;53.10
1107;DHT22;540;49.448;8.612;2023-11-22T08:52:38;11.70;52.50
1107;DHT22;540;49.448;8.612;2023-11-22T08:55:08;11.50;53.10
1107;DHT22;540;49.448;8.612;2023-11-22T08:57:37;11.80;53.40
1107;DHT22;540;49.448;8.612;2023-11-22T09:00:06;11.90;53.70
1107;DHT22;540;49.448;8.612;2023-11-22T09:02:37;12.10;53.80
1107;DHT22;540;49.448;8.612;2023-11-22T09:05:08;11.80;52.50
1107;DHT22;540;49.448;8.612;2023-11-22T09:07:40;12.00;52.60
1107;DHT22;540;49.448;8.612;2023-11-22T09:10:10;11.70;52.80
1107;DHT22;540;49.448;8.612;2023-11-22T09:12:42;12.00;52.40
1107;DHT22;540;49.448;8.612;2023-11-22T09:15:12;12.40;51.90
1107;DHT22;540;49.448;8.612;2023-11-22T09:17:43;11.80;52.40
1107;DHT22;540;49.448;8.612;2023-11-22T09:20:16;12.40;52.00
1107;DHT22;540;49.448;8.612;2023-11-22T09:22:47;12.20;51.40
1107;DHT22;540;49.448;8.612;2023-11-22T09:25:17;12.20;51.80
1107;DHT22;540;49.448;8.612;2023-11-22T09:27:47;12.30;51.60
1107;DHT22;540;49.448;8.612;2023-11-22T09:30:20;11.90;51.40
1107;DHT22;540;49.448;8.612;2023-11-22T09:33:03;11.80;51.40
1107;DHT22;540;49.448;8.612;2023-11-22T09:35:34;11.70;52.30
1107;DHT22;540;49.448;8.612;2023-11-22T09:38:04;11.50;51.60
1107;DHT22;540;49.448;8.612;2023-11-22T09:40:33;11.60;51.80
1107;DHT22;540;49.448;8.612;2023-11-22T09:43:02;11.40;51.70
1107;DHT22;540;49.448;8.612;2023-11-22T09:45:31;10.90;52.20
1107;DHT22;540;49.448;8.612;2023-11-22T09:47:59;10.90;53.90
1107;DHT22;540;49.448;8.612;2023-11-22T09:50:35;10.70;54.10
1107;DHT22;540;49.448;8.612;2023-11-22T09:53:10;10.20;54.90
1107;DHT22;540;49.448;8.612;2023-11-22T09:55:41;9.70;56.50
1107;DHT22;540;49.448;8.612;2023-11-22T09:58:11;9.20;58.10
1107;DHT22;540;49.448;8.612;2023-11-22T10:00:40;9.00;59.30
1107;DHT22;540;49.448;8.612;2023-11-22T10:03:09;8.50;60.50
1107;DHT22;540;49.448;8.612;2023-11-22T10:05:41;8.50;61.40
1107;DHT22;540;49.448;8.612;2023-11-22T10:08:09;7.80;61.80
1107;DHT22;540;49.448;8.612;2023-11-22T10:10:38;7.80;62.80
1107;DHT22;540;49.448;8.612;2023-11-22T10:13:06;7.30;64.30
1107;DHT22;540;49.448;8.612;2023-11-22T10:15:36;7.10;66.10
1107;DHT22;540;49.448;8.612;2023-11-22T10:18:04;7.10;67.80
1107;DHT22;540;49.448;8.612;2023-11-22T10:20:38;7.30;69.60
1107;DHT22;540;49.448;8.612;2023-11-22T10:23:10;6.90;69.20
1107;DHT22;540;49.448;8.612;2023-11-22T10:25:43;6.80;69.80
1107;DHT22;540;49.448;8.612;2023-11-22T10:28:14;6.80;70.60
1107;DHT22;540;49.448;8.612;2023-11-22T10:30:41;6.90;72.30
1107;DHT22;540;49.448;8.612;2023-11-22T10:33:10;6.70;71.40
1107;DHT22;540;49.448;8.612;2023-11-22T10:35:42;6.80;71.80
1107;DHT22;540;49.448;8.612;2023-11-22T10:38:13;6.90;71.00
1107;DHT22;540;49.448;8.612;2023-11-22T10:40:42;6.70;70.90
1107;DHT22;540;49.448;8.612;2023-11-22T10:43:12;6.70;71.70
1107;DHT22;540;49.448;8.612;2023-11-22T10:45:41;6.90;71.10
1107;DHT22;540;49.448;8.612;2023-11-22T10:48:14;6.90;69.80
1107;DHT22;540;49.448;8.612;2023-11-22T10:50:42;7.20;70.00
1107;DHT22;540;49.448;8.612;2023-11-22T10:53:16;7.10;69.80
1107;DHT22;540;49.448;8.612;2023-11-22T10:55:55;7.10;70.20
1107;DHT22;540;49.448;8.612;2023-11-22T10:58:25;7.50;70.00
1107;DHT22;540;49.448;8.612;2023-11-22T11:00:55;7.50;70.10
1107;DHT22;540;49.448;8.612;2023-11-22T11:03:27;7.70;69.80
1107;DHT22;540;49.448;8.612;2023-11-22T11:05:58;7.80;68.60
1107;DHT22;540;49.448;8.612;2023-11-22T11:08:28;7.60;69.30
1107;DHT22;540;49.448;8.612;2023-11-22T11:10:57;7.30;68.60
1107;DHT22;540;49.448;8.612;2023-11-22T11:13:26;7.50;69.00
1107;DHT22;540;49.448;8.612;2023-11-22T11:15:54;7.60;69.10
1107;DHT22;540;49.448;8.612;2023-11-22T11:18:24;7.90;68.70
1107;DHT22;540;49.448;8.612;2023-11-22T11:20:56;7.90;68.00
1107;DHT22;540;49.448;8.612;2023-11-22T11:23:27;8.10;67.90
1107;DHT22;540;49.448;8.612;2023-11-22T11:25:56;7.70;67.80
1107;DHT22;540;49.448;8.612;2023-11-22T11:28:26;8.30;68.40
1107;DHT22;540;49.448;8.612;2023-11-22T11:30:54;8.40;67.50
1107;DHT22;540;49.448;8.612;2023-11-22T11:33:27;8.20;65.60
1107;DHT22;540;49.448;8.612;2023-11-22T11:35:57;8.40;66.00
1107;DHT22;540;49.448;8.612;2023-11-22T11:38:31;8.10;66.00
1107;DHT22;540;49.448;8.612;2023-11-22T11:41:06;7.90;66.60
1107;DHT22;540;49.448;8.612;2023-11-22T11:43:40;8.30;66.60
1107;DHT22;540;49.448;8.612;2023-11-22T11:46:09;7.80;66.60
1107;DHT22;540;49.448;8.612;2023-11-22T11:48:38;7.80;67.50
1107;DHT22;540;49.448;8.612;2023-11-22T11:51:06;7.70;67.80
1107;DHT22;540;49.448;8.612;2023-11-22T11:53:35;7.60;67.60
1107;DHT22;540;49.448;8.612;2023-11-22T11:56:04;7.90;67.20
1107;DHT22;540;49.448;8.612;2023-11-22T11:58:31;7.60;66.90
1107;DHT22;540;49.448;8.612;2023-11-22T12:00:59;8.00;66.50
1107;DHT22;540;49.448;8.612;2023-11-22T12:03:36;8.00;67.10
1107;DHT22;540;49.448;8.612;2023-11-22T12:06:05;8.00;67.40
1107;DHT22;540;49.448;8.612;2023-11-22T12:08:34;7.80;68.00
1107;DHT22;540;49.448;8.612;2023-11-22T12:11:03;7.90;67.90
1107;DHT22;540;49.448;8.612;2023-11-22T12:13:34;7.70;66.50
1107;DHT22;540;49.448;8.612;2023-11-22T12:16:06;7.70;66.40
1107;DHT22;540;49.448;8.612;2023-11-22T12:18:40;7.60;67.70
1107;DHT22;540;49.448;8.612;2023-11-22T12:21:10;7.70;67.30
1107;DHT22;540;49.448;8.612;2023-11-22T12:23:42;7.70;66.80
1107;DHT22;540;49.448;8.612;2023-11-22T12:26:15;7.70;66.90
1107;DHT22;540;49.448;8.612;2023-11-22T12:28:45;7.70;67.40
1107;DHT22;540;49.448;8.612;2023-11-22T12:31:29;7.70;67.10
1107;DHT22;540;49.448;8.612;2023-11-22T12:34:02;7.70;66.50
1107;DHT22;540;49.448;8.612;2023-11-22T12:36:30;8.20;67.90
1107;DHT22;540;49.448;8.612;2023-11-22T12:39:01;7.70;67.90
1107;DHT22;540;49.448;8.612;2023-11-22T12:41:30;7.90;68.10
1107;DHT22;540;49.448;8.612;2023-11-22T12:44:03;8.00;67.00
1107;DHT22;540;49.448;8.612;2023-11-22T12:46:45;7.90;66.20
1107;DHT22;540;49.448;8.612;2023-11-22T12:49:13;7.80;67.50
1107;DHT22;540;49.448;8.612;2023-11-22T12:51:46;7.70;67.40
1107;DHT22;540;49.448;8.612;2023-11-22T12:54:16;7.90;65.80
1107;DHT22;540;49.448;8.612;2023-11-22T12:56:47;7.80;65.60
1107;DHT22;540;49.448;8.612;2023-11-22T12:59:17;7.80;67.00
1107;DHT22;540;49.448;8.612;2023-11-22T13:01:45;7.70;67.20
1107;DHT22;540;49.448;8.612;2023-11-22T13:04:13;7.70;67.80
1107;DHT22;540;49.448;8.612;2023-11-22T13:06:42;7.10;66.50
1107;DHT22;540;49.448;8.612;2023-11-22T13:09:10;7.30;67.50
1107;DHT22;540;49.448;8.612;2023-11-22T13:11:43;7.10;67.80
1107;DHT22;540;49.448;8.612;2023-11-22T13:14:11;7.10;68.60
1107;DHT22;540;49.448;8.612;2023-11-22T13:16:41;7.00;68.30
1107;DHT22;540;49.448;8.612;2023-11-22T13:19:09;7.10;68.70
1107;DHT22;540;49.448;8.612;2023-11-22T13:21:37;7.10;68.50
1107;DHT22;540;49.448;8.612;2023-11-22T13:24:07;7.10;70.00
1107;DHT22;540;49.448;8.612;2023-11-22T13:26:36;7.00;68.70
1107;DHT22;540;49.448;8.612;2023-11-22T13:29:04;6.90;68.90
1107;DHT22;540;49.448;8.612;2023-11-22T13:31:33;6.80;70.80
1107;DHT22;540;49.448;8.612;2023-11-22T13:34:01;7.10;71.00
1107;DHT22;540;49.448;8.612;2023-11-22T13:36:28;7.30;70.90
1107;DHT22;540;49.448;8.612;2023-11-22T13:38:58;7.10;69.90
1107;DHT22;540;49.448;8.612;2023-11-22T13:41:26;6.90;70.10
1107;DHT22;540;49.448;8.612;2023-11-22T13:43:54;7.00;70.50
1107;DHT22;540;49.448;8.612;2023-11-22T13:46:23;7.40;71.20
1107;DHT22;540;49.448;8.612;2023-11-22T13:48:51;7.00;70.00
1107;DHT22;540;49.448;8.612;2023-11-22T13:51:19;7.10;69.00
1107;DHT22;540;49.448;8.612;2023-11-22T13:53:47;7.50;69.50
1107;DHT22;540;49.448;8.612;2023-11-22T13:56:19;7.20;69.50
1107;DHT22;540;49.448;8.612;2023-11-22T13:58:48;7.20;68.90
1107;DHT22;540;49.448;8.612;2023-11-22T14:01:16;7.10;68.80
1107;DHT22;540;49.448;8.612;2023-11-22T14:03:50;7.10;69.00
1107;DHT22;540;49.448;8.612;2023-11-22T14:06:19;7.10;69.80
1107;DHT22;540;49.448;8.612;2023-11-22T14:08:46;7.10;70.40
1107;DHT22;540;49.448;8.612;2023-11-22T14:11:14;6.90;69.30
1107;DHT22;540;49.448;8.612;2023-11-22T14:13:42;7.00;70.10
1107;DHT22;540;49.448;8.612;2023-11-22T14:16:10;7.00;70.30
1107;DHT22;540;49.448;8.612;2023-11-22T14:18:39;7.00;70.10
1107;DHT22;540;49.448;8.612;2023-11-22T14:21:09;6.60;69.20
1107;DHT22;540;49.448;8.612;2023-11-22T14:23:37;6.60;69.60
1107;DHT22;540;49.448;8.612;2023-11-22T14:26:05;6.70;70.50
1107;DHT22;540;49.448;8.612;2023-11-22T14:28:33;6.70;70.20
1107;DHT22;540;49.448;8.612;2023-11-22T14:31:01;6.70;69.90
1107;DHT22;540;49.448;8.612;2023-11-22T14:33:30;6.70;70.70
1107;DHT22;540;49.448;8.612;2023-11-22T14:35:59;6.80;70.90
1107;DHT22;540;49.448;8.612;2023-11-22T14:38:28;7.00;71.40
1107;DHT22;540;49.448;8.612;2023-11-22T14:40:58;6.80;71.20
1107;DHT22;540;49.448;8.612;2023-11-22T14:43:25;6.60;69.80
1107;DHT22;540;49.448;8.612;2023-11-22T14:45:54;6.80;69.90
1107;DHT22;540;49.448;8.612;2023-11-22T14:48:22;6.50;70.10
1107;DHT22;540;49.448;8.612;2023-11-22T14:50:50;6.70;70.30
1107;DHT22;540;49.448;8.612;2023-11-22T14:53:18;6.50;70.30
1107;DHT22;540;49.448;8.612;2023-11-22T14:55:47;6.50;70.80
1107;DHT22;540;49.448;8.612;2023-11-22T14:58:15;6.40;70.60
1107;DHT22;540;49.448;8.612;2023-11-22T15:00:43;6.60;70.50
1107;DHT22;540;49.448;8.612;2023-11-22T15:03:11;6.50;69.90
1107;DHT22;540;49.448;8.612;2023-11-22T15:05:40;6.50;70.40
1107;DHT22;540;49.448;8.612;2023-11-22T15:08:08;6.70;70.00
1107;DHT22;540;49.448;8.612;2023-11-22T15:10:36;6.40;70.10
1107;DHT22;540;49.448;8.612;2023-11-22T15:13:06;5.90;69.60
1107;DHT22;540;49.448;8.612;2023-11-22T15:15:34;6.50;71.40
1107;DHT22;540;49.448;8.612;2023-11-22T15:18:02;6.60;71.60
1107;DHT22;540;49.448;8.612;2023-11-22T15:20:30;6.50;72.10
1107;DHT22;540;49.448;8.612;2023-11-22T15:22:59;6.50;71.60
1107;DHT22;540;49.448;8.612;2023-11-22T15:25:26;6.30;70.30
1107;DHT22;540;49.448;8.612;2023-11-22T15:27:54;6.10;70.40
1107;DHT22;540;49.448;8.612;2023-11-22T15:30:24;6.30;70.60
1107;DHT22;540;49.448;8.612;2023-11-22T15:32:52;6.20;71.50
1107;DHT22;540;49.448;8.612;2023-11-22T15:35:20;6.00;72.20
1107;DHT22;540;49.448;8.612;2023-11-22T15:37:48;6.30;74.50
1107;DHT22;540;49.448;8.612;2023-11-22T15:40:16;6.30;74.10
1107;DHT22;540;49.448;8.612;2023-11-22T15:42:44;6.30;74.20
1107;DHT22;540;49.448;8.612;2023-11-22T15:45:12;6.20;75.40
1107;DHT22;540;49.448;8.612;2023-11-22T15:47:42;6.00;75.60
1107;DHT22;540;49.448;8.612;2023-11-22T15:50:12;6.20;75.40
1107;DHT22;540;49.448;8.612;2023-11-22T15:52:41;6.10;75.60
1107;DHT22;540;49.448;8.612;2023-11-22T15:55:09;6.00;77.00
1107;DHT22;540;49.448;8.612;2023-11-22T15:57:37;6.10;76.70
1107;DHT22;540;49.448;8.612;2023-11-22T16:00:06;5.90;76.70
1107;DHT22;540;49.448;8.612;2023-11-22T16:02:37;5.70;76.20
1107;DHT22;540;49.448;8.612;2023-11-22T16:05:07;6.00;76.00
1107;DHT22;540;49.448;8.612;2023-11-22T16:07:40;6.10;76.50
1107;DHT22;540;49.448;8.612;2023-11-22T16:10:09;6.00;78.30
1107;DHT22;540;49.448;8.612;2023-11-22T16:12:37;5.80;77.90
1107;DHT22;540;49.448;8.612;2023-11-22T16:15:05;6.00;78.20
1107;DHT22;540;49.448;8.612;2023-11-22T16:17:33;6.10;79.90
1107;DHT22;540;49.448;8.612;2023-11-22T16:20:03;5.90;78.60
1107;DHT22;540;49.448;8.612;2023-11-22T16:22:39;5.90;79.70
1107;DHT22;540;49.448;8.612;2023-11-22T16:25:11;6.00;79.60
1107;DHT22;540;49.448;8.612;2023-11-22T16:27:40;5.80;79.50
1107;DHT22;540;49.448;8.612;2023-11-22T16:30:08;5.80;79.10
1107;DHT22;540;49.448;8.612;2023-11-22T16:32:36;5.90;78.80
1107;DHT22;540;49.448;8.612;2023-11-22T16:35:05;5.60;78.40
1107;DHT22;540;49.448;8.612;2023-11-22T16:37:34;6.00;79.70
1107;DHT22;540;49.448;8.612;2023-11-22T16:40:06;5.70;80.00
1107;DHT22;540;49.448;8.612;2023-11-22T16:42:35;5.70;80.50
1107;DHT22;540;49.448;8.612;2023-11-22T16:45:03;5.60;79.20